Time;durP1;ratioP1;P1;durP2;ratioP2;P2;SDS_P1;SDS_P2;PMS_P1;PMS_P2;Temp;Humidity;BMP_temperature;BMP_pressure;BME280_temperature;BME280_humidity;BME280_pressure;Samples;Min_cycle;Max_cycle;Signal;HPM_P1;HPM_P2
2022/11/14 00:00:22;;;;;;;8.00;1.70;;;;;;;3.92;100.00;100701.53;5152095;27;20476;-48
2022/11/14 00:02:49;;;;;;;8.63;2.53;;;;;;;3.90;100.00;100691.00;5151572;27;20133;-47
2022/11/14 00:05:15;;;;;;;3.00;2.05;;;;;;;3.86;100.00;100699.97;5151981;27;20084;-49
2022/11/14 00:07:42;;;;;;;2.80;1.88;;;;;;;3.86;100.00;100706.19;5151696;27;20050;-46
2022/11/14 00:10:09;;;;;;;6.55;2.00;;;;;;;3.74;100.00;100705.75;5151769;27;20046;-47
2022/11/14 00:12:35;;;;;;;10.02;1.90;;;;;;;3.78;100.00;100704.09;5151518;27;20505;-47
2022/11/14 00:15:01;;;;;;;5.50;1.85;;;;;;;3.49;100.00;100695.84;5151508;27;20054;-46
2022/11/14 00:17:27;;;;;;;2.95;1.77;;;;;;;3.60;100.00;100681.16;5151587;27;20083;-47
2022/11/14 00:19:54;;;;;;;3.42;1.77;;;;;;;3.58;100.00;100674.38;5151697;27;20595;-46
2022/11/14 00:22:21;;;;;;;3.90;1.70;;;;;;;3.67;100.00;100681.66;5151267;27;20047;-50
2022/11/14 00:24:47;;;;;;;3.05;1.35;;;;;;;3.53;100.00;100677.94;5151642;27;20161;-47
2022/11/14 00:27:14;;;;;;;5.63;1.98;;;;;;;3.54;100.00;100677.66;5152082;27;20085;-47
2022/11/14 00:29:40;;;;;;;4.85;1.83;;;;;;;3.58;100.00;100667.06;5151333;27;20047;-49
2022/11/14 00:32:07;;;;;;;2.90;2.03;;;;;;;3.61;100.00;100661.06;5151531;27;20133;-48
2022/11/14 00:34:33;;;;;;;2.40;1.48;;;;;;;3.57;100.00;100667.34;5151217;27;20089;-50
2022/11/14 00:37:00;;;;;;;7.57;1.65;;;;;;;3.42;100.00;100660.13;5151483;27;20046;-50
2022/11/14 00:39:27;;;;;;;6.63;1.38;;;;;;;3.37;100.00;100646.59;5151260;27;20133;-50
2022/11/14 00:41:53;;;;;;;5.97;1.80;;;;;;;3.49;100.00;100628.88;5151263;27;20089;-48
2022/11/14 00:44:19;;;;;;;10.05;1.95;;;;;;;3.54;100.00;100612.59;5151196;27;20055;-51
2022/11/14 00:46:46;;;;;;;1.70;1.40;;;;;;;3.61;100.00;100606.84;5151074;27;20462;-50
2022/11/14 00:49:12;;;;;;;7.38;2.00;;;;;;;3.77;100.00;100594.78;5151404;27;20047;-49
2022/11/14 00:51:38;;;;;;;5.30;1.40;;;;;;;3.74;100.00;100600.78;5151109;27;20209;-46
2022/11/14 00:54:05;;;;;;;7.47;1.90;;;;;;;3.85;100.00;100604.19;5151143;27;20134;-47
2022/11/14 00:56:32;;;;;;;5.53;1.77;;;;;;;3.76;100.00;100606.69;5150967;27;20097;-48
2022/11/14 00:58:58;;;;;;;5.03;1.80;;;;;;;3.90;100.00;100614.19;5151267;27;20134;-50
2022/11/14 01:01:24;;;;;;;6.10;1.40;;;;;;;3.84;100.00;100616.16;5150895;27;20145;-49
2022/11/14 01:03:51;;;;;;;4.45;1.33;;;;;;;3.78;100.00;100614.56;5151248;27;20050;-48
2022/11/14 01:06:19;;;;;;;4.82;1.88;;;;;;;3.89;100.00;100624.22;5150858;27;20141;-48
2022/11/14 01:08:45;;;;;;;1.70;1.40;;;;;;;4.11;100.00;100620.25;5151147;27;20085;-48
2022/11/14 01:11:16;;;;;;;3.92;1.60;;;;;;;4.26;100.00;100639.09;5150892;27;20138;-50
2022/11/14 01:13:42;;;;;;;5.97;1.40;;;;;;;4.06;100.00;100661.81;5150676;27;20054;-50
2022/11/14 01:16:09;;;;;;;4.97;1.65;;;;;;;4.06;100.00;100661.00;5150699;27;20428;-47
2022/11/14 01:18:37;;;;;;;2.85;1.45;;;;;;;4.36;100.00;100668.06;5150683;27;20050;-49
2022/11/14 01:21:05;;;;;;;4.13;1.10;;;;;;;4.15;100.00;100689.97;5150624;27;20046;-49
2022/11/14 01:23:32;;;;;;;3.75;1.20;;;;;;;4.27;100.00;100697.75;5150794;27;20425;-47
2022/11/14 01:26:01;;;;;;;8.32;1.20;;;;;;;4.16;100.00;100707.06;5150564;27;20100;-51
2022/11/14 01:28:28;;;;;;;3.28;1.35;;;;;;;4.23;100.00;100704.81;5150561;27;20043;-48
2022/11/14 01:30:54;;;;;;;3.35;1.58;;;;;;;4.21;100.00;100717.88;5150744;27;20069;-47
2022/11/14 01:33:20;;;;;;;1.67;1.00;;;;;;;4.27;100.00;100726.81;5150565;27;20047;-50
2022/11/14 01:35:47;;;;;;;5.32;1.30;;;;;;;3.94;100.00;100748.22;5153243;27;20142;-48
2022/11/14 01:38:14;;;;;;;4.55;1.33;;;;;;;4.23;100.00;100749.09;5154065;27;20067;-51
2022/11/14 01:40:42;;;;;;;7.00;1.40;;;;;;;4.37;100.00;100767.44;5153875;27;20139;-50
2022/11/14 01:43:24;;;;;;;4.95;1.33;;;;;;;4.58;100.00;100782.44;5153889;27;20047;-52
2022/11/14 01:45:54;;;;;;;5.93;1.42;;;;;;;4.52;100.00;100802.59;5151125;27;20467;-51
2022/11/14 01:48:24;;;;;;;4.30;1.70;;;;;;;4.11;100.00;100829.25;5153759;27;20043;-52
2022/11/14 01:50:56;;;;;;;3.17;1.30;;;;;;;4.35;100.00;100811.16;5153796;27;20043;-49
2022/11/14 01:53:24;;;;;;;2.15;1.10;;;;;;;4.45;100.00;100823.84;5154097;27;20088;-51
2022/11/14 01:55:54;;;;;;;2.15;1.15;;;;;;;4.62;100.00;100835.09;5153606;27;20050;-52
2022/11/14 01:58:21;;;;;;;2.95;1.30;;;;;;;4.69;100.00;100859.22;5153973;27;20082;-49
2022/11/14 02:00:48;;;;;;;3.88;0.90;;;;;;;4.55;100.00;100866.41;5153657;27;20047;-50
2022/11/14 02:03:16;;;;;;;3.78;1.25;;;;;;;4.55;100.00;100867.22;5153842;27;20093;-48
2022/11/14 02:05:45;;;;;;;6.32;1.35;;;;;;;4.69;100.00;100872.81;5153706;27;20086;-50
2022/11/14 02:08:15;;;;;;;8.75;1.42;;;;;;;4.79;100.00;100883.59;5153547;27;20163;-50
2022/11/14 02:10:41;;;;;;;4.68;1.30;;;;;;;4.83;100.00;100892.00;5153612;27;20115;-49
2022/11/14 02:13:08;;;;;;;4.10;1.23;;;;;;;4.77;100.00;100909.47;5153486;27;20138;-50
2022/11/14 02:15:35;;;;;;;2.53;1.08;;;;;;;4.53;100.00;100910.13;5153531;27;20131;-48
2022/11/14 02:18:01;;;;;;;1.75;1.10;;;;;;;4.44;100.00;100904.50;5153541;27;20069;-49
2022/11/14 02:20:31;;;;;;;5.18;1.45;;;;;;;4.45;100.00;100902.59;5153503;27;20469;-48
2022/11/14 02:22:58;;;;;;;1.15;0.98;;;;;;;3.80;100.00;100899.13;5153418;27;20046;-50
2022/11/14 02:25:25;;;;;;;5.38;1.23;;;;;;;4.16;100.00;100884.28;5153623;27;20082;-49
2022/11/14 02:27:52;;;;;;;2.78;1.17;;;;;;;4.00;100.00;100866.50;5153454;27;20061;-47
2022/11/14 02:30:21;;;;;;;2.78;1.27;;;;;;;4.01;100.00;100865.41;5153530;27;20095;-48
2022/11/14 02:32:48;;;;;;;2.90;1.08;;;;;;;4.25;100.00;100870.94;5153362;27;20488;-51
2022/11/14 02:35:14;;;;;;;5.18;1.30;;;;;;;4.45;100.00;100875.44;5152993;27;20137;-47
2022/11/14 02:37:41;;;;;;;2.72;1.15;;;;;;;4.35;100.00;100891.81;5153164;27;20133;-50
2022/11/14 02:40:09;;;;;;;3.78;1.70;;;;;;;4.36;100.00;100899.66;5153292;27;20103;-49
2022/11/14 02:42:35;;;;;;;6.03;1.30;;;;;;;4.39;100.00;100893.66;5153124;27;20080;-50
2022/11/14 02:45:02;;;;;;;4.63;1.17;;;;;;;4.22;100.00;100893.22;5152754;27;20057;-47
2022/11/14 02:47:28;;;;;;;5.28;1.52;;;;;;;4.13;100.00;100892.19;5152964;27;20085;-50
2022/11/14 02:49:54;;;;;;;5.18;1.58;;;;;;;4.04;100.00;100883.03;5153118;27;20078;-47
2022/11/14 02:52:21;;;;;;;6.95;1.40;;;;;;;4.28;100.00;100873.09;5153230;27;20099;-47
2022/11/14 02:54:48;;;;;;;4.28;1.25;;;;;;;4.29;100.00;100882.06;5152913;27;20523;-48
2022/11/14 02:57:14;;;;;;;1.90;1.00;;;;;;;4.38;100.00;100891.25;5152698;27;20517;-50
2022/11/14 02:59:40;;;;;;;3.13;1.50;;;;;;;4.38;100.00;100896.69;5152710;27;20090;-47
2022/11/14 03:02:06;;;;;;;5.10;1.40;;;;;;;4.48;100.00;100902.03;5152682;27;20043;-47
2022/11/14 03:04:33;;;;;;;6.88;1.38;;;;;;;4.40;100.00;100900.75;5152773;27;20050;-47
2022/11/14 03:06:59;;;;;;;1.00;1.00;;;;;;;4.25;100.00;100906.25;5152582;27;20517;-47
2022/11/14 03:09:25;;;;;;;6.22;1.33;;;;;;;4.40;100.00;100899.94;5152570;27;20082;-51
2022/11/14 03:11:52;;;;;;;1.65;1.23;;;;;;;4.44;100.00;100912.66;5152587;27;20058;-47
2022/11/14 03:14:19;;;;;;;4.68;1.33;;;;;;;4.07;100.00;100905.00;5152403;27;20513;-51
2022/11/14 03:16:45;;;;;;;3.22;1.38;;;;;;;4.40;100.00;100905.38;5152292;27;20058;-49
2022/11/14 03:19:11;;;;;;;2.88;1.10;;;;;;;4.29;100.00;100904.59;5152736;27;20049;-49
2022/11/14 03:21:38;;;;;;;3.58;1.73;;;;;;;4.60;100.00;100917.97;5152249;27;20056;-48
2022/11/14 03:24:05;;;;;;;4.80;1.40;;;;;;;4.61;100.00;100914.19;5152478;27;20100;-47
2022/11/14 03:26:31;;;;;;;1.83;1.20;;;;;;;4.40;100.00;100922.47;5152314;27;20049;-50
2022/11/14 03:28:58;;;;;;;4.47;1.08;;;;;;;4.55;100.00;100916.09;5152381;27;20552;-49
2022/11/14 03:31:24;;;;;;;5.43;1.27;;;;;;;4.50;100.00;100924.31;5152266;27;20094;-47
2022/11/14 03:33:50;;;;;;;1.52;1.08;;;;;;;4.58;100.00;100925.59;5152106;27;20191;-47
2022/11/14 03:36:17;;;;;;;2.40;1.00;;;;;;;4.36;100.00;100915.13;5152026;27;20050;-46
2022/11/14 03:38:43;;;;;;;5.40;1.30;;;;;;;4.53;100.00;100920.19;5152132;27;20054;-48
2022/11/14 03:41:10;;;;;;;1.98;1.30;;;;;;;4.63;100.00;100917.41;5152026;27;20440;-50
2022/11/14 03:43:36;;;;;;;1.77;1.17;;;;;;;4.28;100.00;100913.84;5152105;27;20047;-50
2022/11/14 03:46:04;;;;;;;2.53;1.40;;;;;;;4.33;100.00;100910.25;5152562;27;20057;-49
2022/11/14 03:48:30;;;;;;;2.22;1.05;;;;;;;4.41;100.00;100909.69;5152170;27;20051;-49
2022/11/14 03:50:57;;;;;;;7.63;1.33;;;;;;;4.43;100.00;100910.19;5152055;27;20050;-48
2022/11/14 03:53:24;;;;;;;4.45;1.50;;;;;;;4.41;100.00;100906.97;5152251;27;20557;-48
2022/11/14 03:55:51;;;;;;;2.08;1.50;;;;;;;4.30;100.00;100902.69;5152081;27;20071;-47
2022/11/14 03:58:17;;;;;;;3.60;1.27;;;;;;;4.63;100.00;100904.66;5151545;27;20480;-47
2022/11/14 04:00:43;;;;;;;4.38;1.20;;;;;;;4.51;100.00;100912.34;5151975;27;20050;-49
2022/11/14 04:03:10;;;;;;;3.88;1.08;;;;;;;4.71;100.00;100914.09;5151669;27;20453;-46
2022/11/14 04:05:37;;;;;;;7.72;1.10;;;;;;;4.68;100.00;100914.66;5152046;27;20164;-47
2022/11/14 04:08:04;;;;;;;4.00;1.33;;;;;;;4.77;100.00;100904.03;5151551;27;20051;-46
2022/11/14 04:10:31;;;;;;;2.40;0.93;;;;;;;4.44;100.00;100906.41;5151711;27;20092;-50
2022/11/14 04:12:57;;;;;;;1.80;1.00;;;;;;;4.68;100.00;100890.22;5151757;27;20536;-51
2022/11/14 04:15:23;;;;;;;3.38;1.27;;;;;;;4.70;100.00;100888.84;5151323;27;20458;-48
2022/11/14 04:17:50;;;;;;;3.15;1.10;;;;;;;4.83;100.00;100884.69;5151742;27;20138;-51
2022/11/14 04:20:18;;;;;;;2.20;1.40;;;;;;;4.86;100.00;100883.28;5151404;27;20600;-48
2022/11/14 04:22:45;;;;;;;3.95;1.10;;;;;;;4.86;100.00;100881.38;5151558;27;20103;-47
2022/11/14 04:25:11;;;;;;;1.17;1.10;;;;;;;4.75;100.00;100879.03;5151505;27;20093;-47
2022/11/14 04:27:38;;;;;;;2.33;1.30;;;;;;;4.81;100.00;100884.13;5151357;27;20524;-46
2022/11/14 04:30:05;;;;;;;2.70;1.17;;;;;;;4.58;100.00;100880.25;5151550;27;20046;-47
2022/11/14 04:32:31;;;;;;;2.45;1.38;;;;;;;4.50;100.00;100897.16;5151527;27;20466;-51
2022/11/14 04:34:58;;;;;;;7.60;1.77;;;;;;;4.34;100.00;100901.84;5151207;27;20089;-48
2022/11/14 04:37:25;;;;;;;1.67;1.27;;;;;;;4.41;100.00;100899.63;5151339;27;20051;-49
2022/11/14 04:39:51;;;;;;;4.32;1.77;;;;;;;4.34;100.00;100907.28;5151514;27;20050;-48
2022/11/14 04:42:17;;;;;;;1.90;1.23;;;;;;;4.04;100.00;100912.88;5151090;27;20509;-47
2022/11/14 04:44:44;;;;;;;2.55;1.27;;;;;;;4.08;100.00;100917.47;5151556;27;20133;-47
2022/11/14 04:47:10;;;;;;;2.35;1.27;;;;;;;4.34;100.00;100925.50;5150821;27;20088;-48
2022/11/14 04:49:36;;;;;;;4.32;1.38;;;;;;;4.06;100.00;100927.78;5151021;27;20113;-47
2022/11/14 04:52:03;;;;;;;2.25;1.60;;;;;;;4.16;100.00;100925.00;5150985;27;20509;-48
2022/11/14 04:54:30;;;;;;;3.63;1.50;;;;;;;4.25;100.00;100926.06;5151042;27;20099;-50
2022/11/14 04:56:56;;;;;;;2.72;1.50;;;;;;;4.55;100.00;100926.16;5150545;27;20406;-49
2022/11/14 04:59:22;;;;;;;2.63;1.55;;;;;;;4.54;100.00;100932.69;5150941;27;20548;-47
2022/11/14 05:01:48;;;;;;;4.93;1.52;;;;;;;4.62;100.00;100927.47;5150998;27;20099;-47
2022/11/14 05:04:15;;;;;;;2.67;1.55;;;;;;;4.48;100.00;100913.72;5150816;27;20047;-46
2022/11/14 05:06:41;;;;;;;2.08;1.42;;;;;;;4.47;100.00;100917.53;5151072;27;20463;-46
2022/11/14 05:09:08;;;;;;;3.28;1.63;;;;;;;4.44;100.00;100917.28;5152634;27;20501;-47
2022/11/14 05:11:35;;;;;;;3.75;1.63;;;;;;;4.40;100.00;100914.31;5154624;27;20085;-49
2022/11/14 05:14:01;;;;;;;2.05;1.42;;;;;;;4.10;100.00;100909.88;5154267;27;20078;-48
2022/11/14 05:16:27;;;;;;;2.80;1.50;;;;;;;4.06;100.00;100926.97;5154375;27;20051;-47
2022/11/14 05:18:58;;;;;;;2.03;1.65;;;;;;;4.20;100.00;100928.00;5154318;27;20051;-48
2022/11/14 05:21:24;;;;;;;1.70;1.45;;;;;;;4.12;100.00;100934.81;5154266;27;20054;-51
2022/11/14 05:23:50;;;;;;;1.20;1.10;;;;;;;4.28;100.00;100934.75;5154111;27;20051;-58
2022/11/14 05:26:18;;;;;;;6.53;2.00;;;;;;;4.42;100.00;100936.56;5154187;27;20068;-56
2022/11/14 05:28:45;;;;;;;2.00;1.35;;;;;;;4.30;100.00;100941.53;5153993;27;20103;-55
2022/11/14 05:31:13;;;;;;;5.93;1.98;;;;;;;4.34;100.00;100944.50;5154123;27;20093;-55
2022/11/14 05:33:40;;;;;;;3.35;1.45;;;;;;;4.52;100.00;100941.13;5154055;27;20050;-52
2022/11/14 05:36:09;;;;;;;4.30;1.45;;;;;;;4.54;100.00;100930.78;5153738;27;20188;-55
2022/11/14 05:38:36;;;;;;;1.63;1.50;;;;;;;4.20;100.00;100915.25;5154435;27;20095;-55
2022/11/14 05:41:05;;;;;;;4.90;1.38;;;;;;;4.31;100.00;100926.03;5153980;27;20103;-56
2022/11/14 05:43:31;;;;;;;5.90;1.40;;;;;;;4.25;100.00;100926.06;5154125;27;20531;-54
2022/11/14 05:46:00;;;;;;;1.73;1.40;;;;;;;4.19;100.00;100945.38;5153606;27;20056;-53
2022/11/14 05:48:26;;;;;;;4.75;1.55;;;;;;;4.18;100.00;100947.28;5153847;27;20156;-56
2022/11/14 05:50:54;;;;;;;4.85;2.05;;;;;;;4.07;100.00;100936.75;5153797;27;20050;-53
2022/11/14 05:53:20;;;;;;;3.83;1.40;;;;;;;4.23;100.00;100949.97;5153605;27;20080;-55
2022/11/14 05:55:46;;;;;;;2.35;1.52;;;;;;;4.07;100.00;100939.47;5153532;27;20055;-53
2022/11/14 05:58:13;;;;;;;4.78;1.77;;;;;;;3.94;100.00;100949.00;5153698;27;20053;-55
2022/11/14 06:00:39;;;;;;;3.97;1.40;;;;;;;4.10;100.00;100947.03;5153492;27;20062;-53
2022/11/14 06:03:06;;;;;;;4.07;1.45;;;;;;;3.93;100.00;100952.78;5153431;27;20141;-54
2022/11/14 06:05:34;;;;;;;3.00;1.80;;;;;;;4.26;100.00;100951.28;5153161;27;20086;-56
2022/11/14 06:08:00;;;;;;;1.40;1.20;;;;;;;4.42;100.00;100938.47;5153399;27;20085;-57
2022/11/14 06:10:27;;;;;;;1.92;1.60;;;;;;;4.45;100.00;100932.47;5153637;27;20049;-54
2022/11/14 06:12:53;;;;;;;3.42;1.77;;;;;;;4.61;100.00;100939.44;5153308;27;20138;-52
2022/11/14 06:15:19;;;;;;;2.40;1.42;;;;;;;4.59;100.00;100921.78;5153375;27;20103;-52
2022/11/14 06:17:46;;;;;;;5.93;1.88;;;;;;;4.54;100.00;100900.91;5153296;27;20086;-53
2022/11/14 06:20:14;;;;;;;4.43;1.48;;;;;;;4.62;100.00;100889.44;5152521;27;20042;-51
2022/11/14 06:22:40;;;;;;;5.28;2.22;;;;;;;4.71;100.00;100874.16;5153324;27;20046;-52
2022/11/14 06:25:07;;;;;;;2.67;1.80;;;;;;;4.87;100.00;100853.13;5153103;27;20424;-54
2022/11/14 06:27:34;;;;;;;3.58;1.90;;;;;;;4.81;100.00;100850.72;5153275;27;20134;-51
2022/11/14 06:30:00;;;;;;;2.17;1.73;;;;;;;5.02;100.00;100840.47;5152940;27;20138;-51
2022/11/14 06:32:26;;;;;;;2.90;2.20;;;;;;;4.90;100.00;100805.53;5153395;27;20099;-54
2022/11/14 06:34:53;;;;;;;4.15;2.53;;;;;;;6.02;100.00;100882.34;5152387;27;20057;-53
2022/11/14 06:37:20;;;;;;;2.28;1.40;;;;;;;5.78;100.00;100806.16;5152831;27;20160;-55
2022/11/14 06:39:46;;;;;;;2.55;1.35;;;;;;;5.57;100.00;100684.00;5152874;27;20057;-52
2022/11/14 06:42:15;;;;;;;5.00;1.40;;;;;;;5.25;100.00;100597.69;5152812;27;20134;-53
2022/11/14 06:44:41;;;;;;;3.22;1.63;;;;;;;5.28;100.00;100572.63;5152713;27;20059;-53
2022/11/14 06:47:07;;;;;;;15.45;2.10;;;;;;;5.09;100.00;100525.63;5152543;27;20058;-56
2022/11/14 06:49:34;;;;;;;2.42;1.50;;;;;;;4.93;100.00;100598.41;5152621;27;20099;-54
2022/11/14 06:52:00;;;;;;;5.60;2.00;;;;;;;5.00;100.00;100636.91;5152528;27;20086;-53
2022/11/14 06:54:27;;;;;;;4.20;1.50;;;;;;;4.95;100.00;100640.50;5152522;27;20133;-53
2022/11/14 06:56:53;;;;;;;6.75;1.50;;;;;;;5.21;100.00;100710.06;5152362;27;20058;-54
2022/11/14 06:59:20;;;;;;;1.50;1.40;;;;;;;5.28;100.00;100688.75;5152409;27;20485;-56
2022/11/14 07:01:46;;;;;;;3.05;1.83;;;;;;;5.27;100.00;100622.69;5152887;27;20133;-54
2022/11/14 07:04:12;;;;;;;1.98;1.50;;;;;;;5.25;100.00;100599.59;5152351;27;20134;-54
2022/11/14 07:06:39;;;;;;;3.25;1.70;;;;;;;5.36;100.00;100563.78;5152628;27;20061;-56
2022/11/14 07:09:05;;;;;;;5.30;1.73;;;;;;;5.24;100.00;100536.25;5152378;27;20066;-54
2022/11/14 07:11:34;;;;;;;5.38;1.60;;;;;;;5.24;100.00;100525.38;5152256;27;20142;-54
2022/11/14 07:14:02;;;;;;;2.35;1.38;;;;;;;5.22;100.00;100546.63;5152296;27;20088;-52
2022/11/14 07:16:30;;;;;;;2.38;1.50;;;;;;;5.30;100.00;100565.00;5152093;27;20047;-52
2022/11/14 07:18:57;;;;;;;4.78;1.60;;;;;;;5.02;100.00;100561.31;5152155;27;20053;-51
2022/11/14 07:21:24;;;;;;;5.50;1.33;;;;;;;4.89;100.00;100606.31;5152158;27;20526;-52
2022/11/14 07:23:50;;;;;;;6.65;1.52;;;;;;;4.77;100.00;100616.03;5152104;27;20175;-54
2022/11/14 07:26:17;;;;;;;2.63;1.50;;;;;;;4.42;100.00;100659.56;5152358;27;20083;-53
2022/11/14 07:28:44;;;;;;;2.38;1.75;;;;;;;4.87;100.00;100686.53;5152631;27;20082;-53
2022/11/14 07:31:13;;;;;;;3.58;1.38;;;;;;;4.87;100.00;100668.31;5151434;27;20078;-52
2022/11/14 07:33:40;;;;;;;2.55;1.40;;;;;;;4.91;100.00;100649.53;5151385;27;20425;-52
2022/11/14 07:36:08;;;;;;;2.42;1.30;;;;;;;5.13;100.00;100584.56;5151911;27;20051;-55
2022/11/14 07:38:36;;;;;;;3.22;1.30;;;;;;;5.24;100.00;100511.78;5152007;27;20066;-53
2022/11/14 07:41:04;;;;;;;4.70;1.60;;;;;;;4.81;100.00;100503.75;5152041;27;20050;-52
2022/11/14 07:43:31;;;;;;;6.28;1.80;;;;;;;4.94;100.00;100483.97;5151676;27;20047;-54
2022/11/14 07:46:02;;;;;;;3.33;1.50;;;;;;;5.07;100.00;100500.66;5151908;27;20051;-55
2022/11/14 07:48:28;;;;;;;3.38;1.90;;;;;;;4.91;100.00;100481.84;5151868;27;20098;-53
2022/11/14 07:50:58;;;;;;;4.72;1.95;;;;;;;5.03;100.00;100486.84;5152041;27;20046;-53
2022/11/14 07:53:24;;;;;;;4.90;1.92;;;;;;;4.92;100.00;100488.09;5151513;27;20051;-56
2022/11/14 07:55:51;;;;;;;2.50;1.98;;;;;;;4.71;100.00;100482.16;5151471;27;20086;-54
2022/11/14 07:58:17;;;;;;;4.47;2.15;;;;;;;5.01;100.00;100539.88;5151618;27;20558;-53
2022/11/14 08:00:43;;;;;;;4.32;2.08;;;;;;;5.16;100.00;100574.97;5151667;27;20446;-51
2022/11/14 08:03:11;;;;;;;4.28;1.63;;;;;;;5.23;100.00;100544.69;5151707;27;20050;-52
2022/11/14 08:05:37;;;;;;;4.72;1.63;;;;;;;4.99;100.00;100515.69;5151685;27;20489;-53
2022/11/14 08:08:04;;;;;;;3.83;1.88;;;;;;;4.84;100.00;100564.84;5151838;27;20047;-55
2022/11/14 08:10:30;;;;;;;6.55;1.88;;;;;;;4.94;100.00;100630.72;5151329;27;20095;-52
2022/11/14 08:12:58;;;;;;;4.07;1.73;;;;;;;4.64;100.00;100644.69;5151284;27;20047;-55
2022/11/14 08:15:24;;;;;;;2.90;2.28;;;;;;;4.79;100.00;100608.38;5151215;27;20050;-52
2022/11/14 08:17:50;;;;;;;2.45;1.63;;;;;;;4.56;100.00;100529.31;5151513;27;20138;-52
2022/11/14 08:20:18;;;;;;;7.25;1.67;;;;;;;4.18;100.00;100607.16;5151398;27;20491;-52
2022/11/14 08:22:44;;;;;;;3.22;2.00;;;;;;;4.66;100.00;100631.59;5151095;27;20638;-51
2022/11/14 08:25:10;;;;;;;2.20;1.80;;;;;;;4.69;100.00;100596.53;5151044;27;20086;-52
2022/11/14 08:27:36;;;;;;;4.22;1.90;;;;;;;4.42;100.00;100626.97;5151446;27;20081;-51
2022/11/14 08:30:03;;;;;;;2.83;1.65;;;;;;;4.35;100.00;100655.59;5151245;27;20046;-52
2022/11/14 08:32:30;;;;;;;3.63;2.42;;;;;;;4.36;100.00;100658.00;5151244;27;20046;-52
2022/11/14 08:34:56;;;;;;;4.15;2.10;;;;;;;4.43;100.00;100653.06;5151196;27;20051;-54
2022/11/14 08:37:23;;;;;;;2.70;1.95;;;;;;;4.60;100.00;100647.19;5150777;27;20058;-52
2022/11/14 08:39:49;;;;;;;4.47;2.00;;;;;;;4.25;100.00;100646.44;5151112;27;20046;-53
2022/11/14 08:42:16;;;;;;;4.93;2.13;;;;;;;4.64;100.00;100675.38;5151214;27;20054;-55
2022/11/14 08:44:42;;;;;;;7.72;2.10;;;;;;;4.72;100.00;100639.41;5154085;27;20619;-54
2022/11/14 08:47:09;;;;;;;6.32;1.92;;;;;;;4.35;100.00;100647.44;5154827;27;20516;-51
2022/11/14 08:49:35;;;;;;;8.93;1.95;;;;;;;5.03;100.00;100671.69;5154701;27;20502;-54
2022/11/14 08:52:01;;;;;;;2.97;1.95;;;;;;;4.92;100.00;100629.41;5154568;27;20539;-52
2022/11/14 08:54:29;;;;;;;3.42;1.70;;;;;;;4.85;100.00;100620.78;5154909;27;20047;-53
2022/11/14 08:56:55;;;;;;;5.18;1.98;;;;;;;5.30;100.00;100586.75;5154529;27;20195;-55
2022/11/14 08:59:21;;;;;;;3.35;1.50;;;;;;;5.32;100.00;100524.69;5154644;27;20058;-54
2022/11/14 09:01:48;;;;;;;4.22;2.17;;;;;;;5.23;100.00;100427.78;5154508;27;20050;-53
2022/11/14 09:04:14;;;;;;;4.43;2.05;;;;;;;5.17;100.00;100354.50;5154492;27;20111;-54
2022/11/14 09:06:40;;;;;;;6.38;2.15;;;;;;;5.35;100.00;100331.03;5154384;27;20557;-54
2022/11/14 09:09:07;;;;;;;2.58;2.03;;;;;;;5.52;100.00;100272.53;5154581;27;20429;-55
2022/11/14 09:11:34;;;;;;;4.55;1.73;;;;;;;5.24;100.00;100271.75;5155041;27;20110;-53
2022/11/14 09:14:01;;;;;;;2.03;1.55;;;;;;;5.24;100.00;100277.19;5154575;27;20127;-54
2022/11/14 09:16:27;;;;;;;4.13;1.75;;;;;;;4.60;100.00;100277.78;5154206;27;20059;-54
2022/11/14 09:18:54;;;;;;;3.88;1.85;;;;;;;4.67;100.00;100365.13;5154948;27;20042;-56
2022/11/14 09:21:20;;;;;;;4.60;1.40;;;;;;;4.97;100.00;100406.50;5154829;27;20505;-55
2022/11/14 09:23:47;;;;;;;3.83;1.73;;;;;;;4.58;100.00;100396.78;5154367;27;20050;-56
2022/11/14 09:26:13;;;;;;;6.38;1.95;;;;;;;5.11;100.00;100455.47;5154374;27;20057;-54
2022/11/14 09:28:40;;;;;;;2.40;1.58;;;;;;;4.77;100.00;100432.06;5154010;27;20057;-56
2022/11/14 09:31:09;;;;;;;3.83;1.70;;;;;;;5.24;100.00;100454.69;5154160;27;20050;-55
2022/11/14 09:33:36;;;;;;;2.65;1.80;;;;;;;5.42;100.00;100376.88;5154495;27;20196;-56
2022/11/14 09:36:04;;;;;;;6.40;2.10;;;;;;;5.38;100.00;100327.72;5154006;27;20567;-57
2022/11/14 09:38:31;;;;;;;5.60;2.03;;;;;;;5.35;100.00;100328.31;5154175;27;20043;-54
2022/11/14 09:41:09;;;;;;;2.78;1.88;;;;;;;5.60;100.00;100313.44;5154049;27;20134;-53
2022/11/14 09:43:54;;;;;;;2.10;1.80;;;;;;;5.30;100.00;100256.91;5153777;27;20051;-57
2022/11/14 09:46:23;;;;;;;3.70;1.90;;;;;;;5.34;100.00;100296.00;5153824;27;20079;-54
2022/11/14 09:48:51;;;;;;;3.63;2.03;;;;;;;5.66;100.00;100320.38;5153825;27;20130;-57
2022/11/14 09:51:21;;;;;;;4.47;2.42;;;;;;;5.33;100.00;100297.09;5153812;27;20054;-57
2022/11/14 09:53:53;;;;;;;3.78;1.85;;;;;;;5.78;100.00;100281.75;5153717;27;20130;-55
2022/11/14 09:56:24;;;;;;;11.30;2.80;;;;;;;5.55;100.00;100193.03;5152726;27;20056;-56
2022/11/14 09:58:51;;;;;;;4.95;2.92;;;;;;;5.13;100.00;100223.00;5153483;27;20060;-55
2022/11/14 10:01:36;;;;;;;6.05;3.17;;;;;;;5.23;100.00;100325.31;5153659;27;20416;-56
2022/11/14 10:04:11;;;;;;;6.45;3.10;;;;;;;5.47;100.00;100332.47;5153970;27;20459;-54
2022/11/14 10:06:46;;;;;;;4.03;3.60;;;;;;;5.22;100.00;100312.00;5153380;27;20051;-52
2022/11/14 10:09:31;;;;;;;7.75;3.83;;;;;;;5.23;100.00;100319.03;5153345;27;20081;-56
2022/11/14 10:12:07;;;;;;;8.98;5.13;;;;;;;5.49;100.00;100263.03;5153589;27;20050;-53
2022/11/14 10:15:12;;;;;;;10.10;5.15;;;;;;;5.29;100.00;100160.16;5153811;27;20047;-54
2022/11/14 10:18:02;;;;;;;10.73;4.10;;;;;;;5.22;100.00;100206.78;5069310;28;20139;-57
2022/11/14 10:20:36;;;;;;;8.23;3.65;;;;;;;4.37;100.00;100265.94;5151618;27;20134;-57
2022/11/14 10:23:09;;;;;;;;;;;;;;;5.23;100.00;100357.09;5153742;27;20082;-55
2022/11/14 10:25:47;;;;;;;6.43;3.60;;;;;;;5.36;100.00;100297.28;5153204;27;19934;-54
2022/11/14 10:28:38;;;;;;;6.28;2.88;;;;;;;5.69;100.00;100296.38;5152960;27;20069;-55
2022/11/14 10:31:13;;;;;;;10.43;4.97;;;;;;;4.97;100.00;100189.09;5152943;27;20095;-55
2022/11/14 10:33:51;;;;;;;6.60;3.63;;;;;;;5.52;100.00;100167.25;5152923;27;20049;-58
2022/11/14 10:36:27;;;;;;;5.13;3.92;;;;;;;4.84;100.00;100200.75;5152697;27;20050;-47
2022/11/14 10:39:01;;;;;;;6.97;4.00;;;;;;;4.87;100.00;100317.00;5153015;27;20074;-47
2022/11/14 10:41:28;;;;;;;5.68;3.40;;;;;;;4.54;100.00;100362.34;5152782;27;20191;-49
2022/11/14 10:43:56;;;;;;;10.07;4.40;;;;;;;4.86;100.00;100361.56;5153036;27;20129;-51
2022/11/14 10:46:29;;;;;;;7.70;4.28;;;;;;;5.36;100.00;100350.88;5153111;27;20050;-49
2022/11/14 10:48:55;;;;;;;11.43;4.60;;;;;;;5.05;100.00;100279.97;5152570;27;20047;-48
2022/11/14 10:51:25;;;;;;;4.43;4.00;;;;;;;5.20;100.00;100287.84;5152946;27;20109;-47
2022/11/14 10:53:55;;;;;;;7.90;4.47;;;;;;;5.30;100.00;100243.31;5152467;27;20050;-48
2022/11/14 10:56:22;;;;;;;5.95;3.70;;;;;;;5.28;100.00;100172.94;5152400;27;20149;-47
2022/11/14 10:58:48;;;;;;;5.47;3.80;;;;;;;4.85;100.00;100162.41;5152452;27;20051;-50
2022/11/14 11:01:36;;;;;;;7.32;3.90;;;;;;;4.83;100.00;100189.09;5152435;27;20425;-49
2022/11/14 11:04:18;;;;;;;6.82;3.92;;;;;;;5.10;100.00;100247.28;5152192;27;20051;-52
2022/11/14 11:06:44;;;;;;;6.90;4.65;;;;;;;4.75;100.00;100316.66;5152089;27;20054;-48
2022/11/14 11:12:02;;;;;;;5.53;3.88;;;;;;;5.29;100.00;100362.16;5152154;27;20522;-52
2022/11/14 11:14:29;;;;;;;10.80;5.80;;;;;;;5.02;100.00;100265.06;5152163;27;20524;-52
2022/11/14 11:17:17;;;;;;;12.02;5.15;;;;;;;5.35;100.00;100281.28;5152365;27;20196;-53
2022/11/14 11:19:46;;;;;;;8.85;5.13;;;;;;;5.20;100.00;100168.22;5152187;27;20083;-55
2022/11/14 11:22:37;;;;;;;11.15;5.53;;;;;;;5.55;100.00;100103.28;5152248;27;20089;-53
2022/11/14 11:25:22;;;;;;;7.95;5.03;;;;;;;5.34;100.00;100092.88;5131668;27;20046;-56
2022/11/14 11:28:03;;;;;;;17.63;6.75;;;;;;;5.54;100.00;100074.47;5152009;27;20133;-53
2022/11/14 11:30:30;;;;;;;11.73;7.20;;;;;;;5.14;100.00;100047.13;5152226;27;20079;-52